sensor_id;sensor_type;location;lat;lon;timestamp;temperature;humidity
20690;DHT22;10504;48.762;8.996;2023-09-19T00:02:19;16.30;99.90
20690;DHT22;10504;48.762;8.996;2023-09-19T00:04:45;16.20;99.90
20690;DHT22;10504;48.762;8.996;2023-09-19T00:07:10;16.30;99.90
20690;DHT22;10504;48.762;8.996;2023-09-19T00:09:36;16.30;99.90
20690;DHT22;10504;48.762;8.996;2023-09-19T00:12:06;16.30;99.90
20690;DHT22;10504;48.762;8.996;2023-09-19T00:14:32;16.30;99.90
20690;DHT22;10504;48.762;8.996;2023-09-19T00:17:01;16.30;99.90
20690;DHT22;10504;48.762;8.996;2023-09-19T00:19:33;16.30;99.90
20690;DHT22;10504;48.762;8.996;2023-09-19T00:21:58;16.30;99.90
20690;DHT22;10504;48.762;8.996;2023-09-19T00:24:24;16.30;99.90
20690;DHT22;10504;48.762;8.996;2023-09-19T00:26:49;16.30;99.90
20690;DHT22;10504;48.762;8.996;2023-09-19T00:29:15;16.30;99.90
20690;DHT22;10504;48.762;8.996;2023-09-19T00:31:44;16.30;99.90
20690;DHT22;10504;48.762;8.996;2023-09-19T00:34:10;16.30;99.90
20690;DHT22;10504;48.762;8.996;2023-09-19T00:36:37;16.30;99.90
20690;DHT22;10504;48.762;8.996;2023-09-19T00:39:05;16.30;99.90
20690;DHT22;10504;48.762;8.996;2023-09-19T00:41:32;16.30;99.90
20690;DHT22;10504;48.762;8.996;2023-09-19T00:43:57;16.30;99.90
20690;DHT22;10504;48.762;8.996;2023-09-19T00:46:25;16.30;99.90
20690;DHT22;10504;48.762;8.996;2023-09-19T00:48:51;16.30;99.90
20690;DHT22;10504;48.762;8.996;2023-09-19T00:51:16;16.30;99.90
20690;DHT22;10504;48.762;8.996;2023-09-19T00:53:47;16.30;99.90
20690;DHT22;10504;48.762;8.996;2023-09-19T00:56:14;16.30;99.90
20690;DHT22;10504;48.762;8.996;2023-09-19T00:58:40;16.30;99.90
20690;DHT22;10504;48.762;8.996;2023-09-19T01:01:06;16.30;99.90
20690;DHT22;10504;48.762;8.996;2023-09-19T01:03:36;16.30;99.90
20690;DHT22;10504;48.762;8.996;2023-09-19T01:06:02;16.30;99.90
20690;DHT22;10504;48.762;8.996;2023-09-19T01:08:28;16.30;99.90
20690;DHT22;10504;48.762;8.996;2023-09-19T01:11:11;16.30;99.90
20690;DHT22;10504;48.762;8.996;2023-09-19T01:13:55;16.30;99.90
20690;DHT22;10504;48.762;8.996;2023-09-19T01:21:50;16.20;99.90
20690;DHT22;10504;48.762;8.996;2023-09-19T01:30:10;16.10;99.90
20690;DHT22;10504;48.762;8.996;2023-09-19T01:32:39;16.10;99.90
20690;DHT22;10504;48.762;8.996;2023-09-19T01:35:06;16.10;99.90
20690;DHT22;10504;48.762;8.996;2023-09-19T01:37:37;16.10;99.90
20690;DHT22;10504;48.762;8.996;2023-09-19T01:40:08;16.00;99.90
20690;DHT22;10504;48.762;8.996;2023-09-19T01:42:58;16.00;99.90
20690;DHT22;10504;48.762;8.996;2023-09-19T01:48:34;16.00;99.90
20690;DHT22;10504;48.762;8.996;2023-09-19T01:51:03;16.00;99.90
20690;DHT22;10504;48.762;8.996;2023-09-19T01:53:41;16.00;99.90
20690;DHT22;10504;48.762;8.996;2023-09-19T01:56:13;15.90;99.90
20690;DHT22;10504;48.762;8.996;2023-09-19T01:58:53;15.90;99.90
20690;DHT22;10504;48.762;8.996;2023-09-19T02:01:22;15.90;99.90
20690;DHT22;10504;48.762;8.996;2023-09-19T02:03:50;15.90;99.90
20690;DHT22;10504;48.762;8.996;2023-09-19T02:06:16;15.90;99.90
20690;DHT22;10504;48.762;8.996;2023-09-19T02:08:43;16.00;99.90
20690;DHT22;10504;48.762;8.996;2023-09-19T02:11:09;16.00;99.90
20690;DHT22;10504;48.762;8.996;2023-09-19T02:13:35;16.00;99.90
20690;DHT22;10504;48.762;8.996;2023-09-19T02:16:00;16.00;99.90
20690;DHT22;10504;48.762;8.996;2023-09-19T02:18:26;16.00;99.90
20690;DHT22;10504;48.762;8.996;2023-09-19T02:20:53;16.00;99.90
20690;DHT22;10504;48.762;8.996;2023-09-19T02:23:20;16.00;99.90
20690;DHT22;10504;48.762;8.996;2023-09-19T02:25:56;16.00;99.90
20690;DHT22;10504;48.762;8.996;2023-09-19T02:28:29;16.00;99.90
20690;DHT22;10504;48.762;8.996;2023-09-19T02:30:56;16.00;99.90
20690;DHT22;10504;48.762;8.996;2023-09-19T02:33:22;16.00;99.90
20690;DHT22;10504;48.762;8.996;2023-09-19T02:35:48;16.00;99.90
20690;DHT22;10504;48.762;8.996;2023-09-19T02:38:14;16.00;99.90
20690;DHT22;10504;48.762;8.996;2023-09-19T02:40:43;15.90;99.90
20690;DHT22;10504;48.762;8.996;2023-09-19T02:43:09;15.90;99.90
20690;DHT22;10504;48.762;8.996;2023-09-19T02:45:35;15.90;99.90
20690;DHT22;10504;48.762;8.996;2023-09-19T02:48:01;16.00;99.90
20690;DHT22;10504;48.762;8.996;2023-09-19T02:50:27;15.90;99.90
20690;DHT22;10504;48.762;8.996;2023-09-19T02:52:53;16.00;99.90
20690;DHT22;10504;48.762;8.996;2023-09-19T02:55:19;16.00;99.90
20690;DHT22;10504;48.762;8.996;2023-09-19T02:57:51;16.00;99.90
20690;DHT22;10504;48.762;8.996;2023-09-19T03:00:19;16.00;99.90
20690;DHT22;10504;48.762;8.996;2023-09-19T03:02:47;16.00;99.90
20690;DHT22;10504;48.762;8.996;2023-09-19T03:05:12;16.10;99.90
20690;DHT22;10504;48.762;8.996;2023-09-19T03:07:38;16.10;99.90
20690;DHT22;10504;48.762;8.996;2023-09-19T03:10:06;16.10;99.90
20690;DHT22;10504;48.762;8.996;2023-09-19T03:12:32;16.10;99.90
20690;DHT22;10504;48.762;8.996;2023-09-19T03:14:59;16.10;99.90
20690;DHT22;10504;48.762;8.996;2023-09-19T03:17:25;16.10;99.90
20690;DHT22;10504;48.762;8.996;2023-09-19T03:19:50;16.10;99.90
20690;DHT22;10504;48.762;8.996;2023-09-19T03:22:16;16.10;99.90
20690;DHT22;10504;48.762;8.996;2023-09-19T03:24:43;16.10;99.90
20690;DHT22;10504;48.762;8.996;2023-09-19T03:27:12;16.10;99.90
20690;DHT22;10504;48.762;8.996;2023-09-19T03:29:39;16.10;99.90
20690;DHT22;10504;48.762;8.996;2023-09-19T03:32:05;16.10;99.90
20690;DHT22;10504;48.762;8.996;2023-09-19T03:34:31;16.10;99.90
20690;DHT22;10504;48.762;8.996;2023-09-19T03:36:56;16.10;99.90
20690;DHT22;10504;48.762;8.996;2023-09-19T03:39:22;16.10;99.90
20690;DHT22;10504;48.762;8.996;2023-09-19T03:41:48;16.10;99.90
20690;DHT22;10504;48.762;8.996;2023-09-19T03:44:15;16.10;99.90
20690;DHT22;10504;48.762;8.996;2023-09-19T03:46:40;16.10;99.90
20690;DHT22;10504;48.762;8.996;2023-09-19T03:49:06;16.10;99.90
20690;DHT22;10504;48.762;8.996;2023-09-19T03:51:32;16.10;99.90
20690;DHT22;10504;48.762;8.996;2023-09-19T03:53:59;16.20;99.90
20690;DHT22;10504;48.762;8.996;2023-09-19T03:56:25;16.20;99.90
20690;DHT22;10504;48.762;8.996;2023-09-19T03:58:51;16.20;99.90
20690;DHT22;10504;48.762;8.996;2023-09-19T04:01:16;16.20;99.90
20690;DHT22;10504;48.762;8.996;2023-09-19T04:03:44;16.10;99.90
20690;DHT22;10504;48.762;8.996;2023-09-19T04:06:16;16.10;99.90
20690;DHT22;10504;48.762;8.996;2023-09-19T04:08:42;16.20;99.90
20690;DHT22;10504;48.762;8.996;2023-09-19T04:11:09;16.20;99.90
20690;DHT22;10504;48.762;8.996;2023-09-19T04:13:35;16.20;99.90
20690;DHT22;10504;48.762;8.996;2023-09-19T04:16:00;16.20;99.90
20690;DHT22;10504;48.762;8.996;2023-09-19T04:18:26;16.20;99.90
20690;DHT22;10504;48.762;8.996;2023-09-19T04:20:52;16.20;99.90
20690;DHT22;10504;48.762;8.996;2023-09-19T04:23:18;16.20;99.90
20690;DHT22;10504;48.762;8.996;2023-09-19T04:25:46;16.20;99.90
20690;DHT22;10504;48.762;8.996;2023-09-19T04:28:12;16.20;99.90
20690;DHT22;10504;48.762;8.996;2023-09-19T04:30:38;16.20;99.90
20690;DHT22;10504;48.762;8.996;2023-09-19T04:33:06;16.20;99.90
20690;DHT22;10504;48.762;8.996;2023-09-19T04:35:32;16.20;99.90
20690;DHT22;10504;48.762;8.996;2023-09-19T04:37:58;16.20;99.90
20690;DHT22;10504;48.762;8.996;2023-09-19T04:40:24;16.20;99.90
20690;DHT22;10504;48.762;8.996;2023-09-19T04:42:57;16.20;99.90
20690;DHT22;10504;48.762;8.996;2023-09-19T04:45:26;16.20;99.90
20690;DHT22;10504;48.762;8.996;2023-09-19T04:47:52;16.00;99.90
20690;DHT22;10504;48.762;8.996;2023-09-19T04:50:19;15.90;99.90
20690;DHT22;10504;48.762;8.996;2023-09-19T04:52:45;15.80;99.90
20690;DHT22;10504;48.762;8.996;2023-09-19T04:55:14;15.80;99.90
20690;DHT22;10504;48.762;8.996;2023-09-19T04:57:49;15.70;99.90
20690;DHT22;10504;48.762;8.996;2023-09-19T05:00:17;15.70;99.90
20690;DHT22;10504;48.762;8.996;2023-09-19T05:02:44;15.70;99.90
20690;DHT22;10504;48.762;8.996;2023-09-19T05:05:10;15.60;99.90
20690;DHT22;10504;48.762;8.996;2023-09-19T05:07:38;15.60;99.90
20690;DHT22;10504;48.762;8.996;2023-09-19T05:10:04;15.60;99.90
20690;DHT22;10504;48.762;8.996;2023-09-19T05:12:32;15.60;99.90
20690;DHT22;10504;48.762;8.996;2023-09-19T05:14:58;15.60;99.90
20690;DHT22;10504;48.762;8.996;2023-09-19T05:17:23;15.60;99.90
20690;DHT22;10504;48.762;8.996;2023-09-19T05:19:50;15.60;99.90
20690;DHT22;10504;48.762;8.996;2023-09-19T05:22:15;15.60;99.90
20690;DHT22;10504;48.762;8.996;2023-09-19T05:24:42;15.60;99.90
20690;DHT22;10504;48.762;8.996;2023-09-19T05:27:09;15.60;99.90
20690;DHT22;10504;48.762;8.996;2023-09-19T05:29:34;15.60;99.90
20690;DHT22;10504;48.762;8.996;2023-09-19T05:32:00;15.60;99.90
20690;DHT22;10504;48.762;8.996;2023-09-19T05:34:25;15.60;99.90
20690;DHT22;10504;48.762;8.996;2023-09-19T05:36:54;15.60;99.90
20690;DHT22;10504;48.762;8.996;2023-09-19T05:39:20;15.60;99.90
20690;DHT22;10504;48.762;8.996;2023-09-19T05:41:46;15.40;99.90
20690;DHT22;10504;48.762;8.996;2023-09-19T05:44:13;15.10;99.90
20690;DHT22;10504;48.762;8.996;2023-09-19T05:46:39;15.00;99.90
20690;DHT22;10504;48.762;8.996;2023-09-19T05:49:05;15.00;99.90
20690;DHT22;10504;48.762;8.996;2023-09-19T05:51:31;15.00;99.90
20690;DHT22;10504;48.762;8.996;2023-09-19T05:53:56;15.00;99.90
20690;DHT22;10504;48.762;8.996;2023-09-19T05:56:23;14.80;99.90
20690;DHT22;10504;48.762;8.996;2023-09-19T05:58:48;14.80;99.90
20690;DHT22;10504;48.762;8.996;2023-09-19T06:01:15;14.70;99.90
20690;DHT22;10504;48.762;8.996;2023-09-19T06:03:40;14.70;99.90
20690;DHT22;10504;48.762;8.996;2023-09-19T06:06:06;14.70;99.90
20690;DHT22;10504;48.762;8.996;2023-09-19T06:08:32;14.60;99.90
20690;DHT22;10504;48.762;8.996;2023-09-19T06:10:59;14.60;99.90
20690;DHT22;10504;48.762;8.996;2023-09-19T06:13:27;14.50;99.90
20690;DHT22;10504;48.762;8.996;2023-09-19T06:15:52;14.40;99.90
20690;DHT22;10504;48.762;8.996;2023-09-19T06:18:19;14.50;99.90
20690;DHT22;10504;48.762;8.996;2023-09-19T06:20:47;14.40;99.90
20690;DHT22;10504;48.762;8.996;2023-09-19T06:23:13;14.40;99.90
20690;DHT22;10504;48.762;8.996;2023-09-19T06:25:38;14.40;99.90
20690;DHT22;10504;48.762;8.996;2023-09-19T06:28:04;14.30;99.90
20690;DHT22;10504;48.762;8.996;2023-09-19T06:30:31;14.20;99.90
20690;DHT22;10504;48.762;8.996;2023-09-19T06:32:58;14.20;99.90
20690;DHT22;10504;48.762;8.996;2023-09-19T06:35:25;14.30;99.90
20690;DHT22;10504;48.762;8.996;2023-09-19T06:37:53;14.30;99.90
20690;DHT22;10504;48.762;8.996;2023-09-19T06:40:19;14.30;99.90
20690;DHT22;10504;48.762;8.996;2023-09-19T06:42:46;14.30;99.90
20690;DHT22;10504;48.762;8.996;2023-09-19T06:45:13;14.30;99.90
20690;DHT22;10504;48.762;8.996;2023-09-19T06:47:43;14.30;99.90
20690;DHT22;10504;48.762;8.996;2023-09-19T06:50:09;14.30;99.90
20690;DHT22;10504;48.762;8.996;2023-09-19T06:52:42;14.30;99.90
20690;DHT22;10504;48.762;8.996;2023-09-19T06:55:08;14.40;99.90
20690;DHT22;10504;48.762;8.996;2023-09-19T06:57:35;14.30;99.90
20690;DHT22;10504;48.762;8.996;2023-09-19T07:00:02;14.30;99.90
20690;DHT22;10504;48.762;8.996;2023-09-19T07:02:28;14.30;99.90
20690;DHT22;10504;48.762;8.996;2023-09-19T07:04:53;14.40;99.90
20690;DHT22;10504;48.762;8.996;2023-09-19T07:07:19;14.30;99.90
20690;DHT22;10504;48.762;8.996;2023-09-19T07:09:45;14.30;99.90
20690;DHT22;10504;48.762;8.996;2023-09-19T07:12:10;14.30;99.90
20690;DHT22;10504;48.762;8.996;2023-09-19T07:14:37;14.30;99.90
20690;DHT22;10504;48.762;8.996;2023-09-19T07:17:03;14.40;99.90
20690;DHT22;10504;48.762;8.996;2023-09-19T07:19:29;14.40;99.90
20690;DHT22;10504;48.762;8.996;2023-09-19T07:21:55;14.40;99.90
20690;DHT22;10504;48.762;8.996;2023-09-19T07:24:21;14.50;99.90
20690;DHT22;10504;48.762;8.996;2023-09-19T07:26:49;14.50;99.90
20690;DHT22;10504;48.762;8.996;2023-09-19T07:29:15;14.50;99.90
20690;DHT22;10504;48.762;8.996;2023-09-19T07:31:40;14.60;99.90
20690;DHT22;10504;48.762;8.996;2023-09-19T07:34:07;14.60;99.90
20690;DHT22;10504;48.762;8.996;2023-09-19T07:36:34;14.70;99.90
20690;DHT22;10504;48.762;8.996;2023-09-19T07:39:00;14.60;99.90
20690;DHT22;10504;48.762;8.996;2023-09-19T07:41:26;14.70;99.90
20690;DHT22;10504;48.762;8.996;2023-09-19T07:43:51;14.70;99.90
20690;DHT22;10504;48.762;8.996;2023-09-19T07:46:17;14.70;99.90
20690;DHT22;10504;48.762;8.996;2023-09-19T07:48:44;14.80;99.90
20690;DHT22;10504;48.762;8.996;2023-09-19T07:51:14;14.90;99.90
20690;DHT22;10504;48.762;8.996;2023-09-19T07:53:41;14.90;99.90
20690;DHT22;10504;48.762;8.996;2023-09-19T07:56:08;14.80;99.90
20690;DHT22;10504;48.762;8.996;2023-09-19T07:58:35;14.80;99.90
20690;DHT22;10504;48.762;8.996;2023-09-19T08:01:10;14.90;99.90
20690;DHT22;10504;48.762;8.996;2023-09-19T08:03:39;15.00;99.90
20690;DHT22;10504;48.762;8.996;2023-09-19T08:06:09;14.90;99.90
20690;DHT22;10504;48.762;8.996;2023-09-19T08:08:35;14.90;99.90
20690;DHT22;10504;48.762;8.996;2023-09-19T08:11:05;14.80;99.90
20690;DHT22;10504;48.762;8.996;2023-09-19T08:13:41;14.90;99.90
20690;DHT22;10504;48.762;8.996;2023-09-19T08:16:12;14.90;99.90
20690;DHT22;10504;48.762;8.996;2023-09-19T08:18:40;14.80;99.90
20690;DHT22;10504;48.762;8.996;2023-09-19T08:21:06;14.70;99.90
20690;DHT22;10504;48.762;8.996;2023-09-19T08:23:37;14.70;99.90
20690;DHT22;10504;48.762;8.996;2023-09-19T08:26:04;14.80;99.90
20690;DHT22;10504;48.762;8.996;2023-09-19T08:28:33;14.80;99.90
20690;DHT22;10504;48.762;8.996;2023-09-19T08:31:03;14.80;99.90
20690;DHT22;10504;48.762;8.996;2023-09-19T08:33:36;14.90;99.90
20690;DHT22;10504;48.762;8.996;2023-09-19T08:36:03;14.90;99.90
20690;DHT22;10504;48.762;8.996;2023-09-19T08:38:35;14.90;99.90
20690;DHT22;10504;48.762;8.996;2023-09-19T08:41:05;14.90;99.90
20690;DHT22;10504;48.762;8.996;2023-09-19T08:43:31;14.90;99.90
20690;DHT22;10504;48.762;8.996;2023-09-19T08:46:19;14.90;99.90
20690;DHT22;10504;48.762;8.996;2023-09-19T08:49:08;14.90;99.90
20690;DHT22;10504;48.762;8.996;2023-09-19T08:51:42;15.00;99.90
20690;DHT22;10504;48.762;8.996;2023-09-19T08:54:25;15.10;99.90
20690;DHT22;10504;48.762;8.996;2023-09-19T08:56:54;15.20;99.90
20690;DHT22;10504;48.762;8.996;2023-09-19T08:59:22;15.20;99.90
20690;DHT22;10504;48.762;8.996;2023-09-19T09:01:53;15.20;99.90
20690;DHT22;10504;48.762;8.996;2023-09-19T09:04:20;15.20;99.90
20690;DHT22;10504;48.762;8.996;2023-09-19T09:06:48;15.20;99.90
20690;DHT22;10504;48.762;8.996;2023-09-19T09:09:17;15.20;99.90
20690;DHT22;10504;48.762;8.996;2023-09-19T09:11:42;15.10;99.90
20690;DHT22;10504;48.762;8.996;2023-09-19T09:14:08;15.10;99.90
20690;DHT22;10504;48.762;8.996;2023-09-19T09:16:34;15.10;99.90
20690;DHT22;10504;48.762;8.996;2023-09-19T09:19:00;15.10;99.90
20690;DHT22;10504;48.762;8.996;2023-09-19T09:21:27;15.10;99.90
20690;DHT22;10504;48.762;8.996;2023-09-19T09:23:54;15.10;99.90
20690;DHT22;10504;48.762;8.996;2023-09-19T09:26:41;15.10;99.90
20690;DHT22;10504;48.762;8.996;2023-09-19T09:29:10;15.20;99.90
20690;DHT22;10504;48.762;8.996;2023-09-19T09:31:36;15.30;99.90
20690;DHT22;10504;48.762;8.996;2023-09-19T09:34:03;15.30;99.90
20690;DHT22;10504;48.762;8.996;2023-09-19T09:36:36;15.40;99.90
20690;DHT22;10504;48.762;8.996;2023-09-19T09:39:02;15.30;99.90
20690;DHT22;10504;48.762;8.996;2023-09-19T09:41:42;15.30;99.90
20690;DHT22;10504;48.762;8.996;2023-09-19T09:44:18;15.40;99.90
20690;DHT22;10504;48.762;8.996;2023-09-19T09:46:48;15.50;99.90
20690;DHT22;10504;48.762;8.996;2023-09-19T09:49:27;15.60;99.90
20690;DHT22;10504;48.762;8.996;2023-09-19T09:52:01;15.80;99.90
20690;DHT22;10504;48.762;8.996;2023-09-19T09:54:32;15.90;99.90
20690;DHT22;10504;48.762;8.996;2023-09-19T09:57:08;16.10;99.90
20690;DHT22;10504;48.762;8.996;2023-09-19T09:59:53;16.20;99.90
20690;DHT22;10504;48.762;8.996;2023-09-19T10:02:27;16.40;99.90
20690;DHT22;10504;48.762;8.996;2023-09-19T10:04:58;16.40;99.90
20690;DHT22;10504;48.762;8.996;2023-09-19T10:07:32;16.50;99.90
20690;DHT22;10504;48.762;8.996;2023-09-19T10:10:05;16.40;99.90
20690;DHT22;10504;48.762;8.996;2023-09-19T10:12:49;16.50;99.90
20690;DHT22;10504;48.762;8.996;2023-09-19T10:15:18;16.50;99.90
20690;DHT22;10504;48.762;8.996;2023-09-19T10:17:47;16.50;99.90
20690;DHT22;10504;48.762;8.996;2023-09-19T10:20:14;16.60;99.90
20690;DHT22;10504;48.762;8.996;2023-09-19T10:23:05;16.60;99.90
20690;DHT22;10504;48.762;8.996;2023-09-19T10:25:37;16.50;99.90
20690;DHT22;10504;48.762;8.996;2023-09-19T10:28:03;16.60;99.90
20690;DHT22;10504;48.762;8.996;2023-09-19T10:30:33;16.70;99.90
20690;DHT22;10504;48.762;8.996;2023-09-19T10:33:03;16.80;99.90
20690;DHT22;10504;48.762;8.996;2023-09-19T10:35:29;16.80;99.90
20690;DHT22;10504;48.762;8.996;2023-09-19T10:38:00;16.80;99.90
20690;DHT22;10504;48.762;8.996;2023-09-19T10:40:27;16.80;99.90
20690;DHT22;10504;48.762;8.996;2023-09-19T10:43:02;16.90;99.90
20690;DHT22;10504;48.762;8.996;2023-09-19T10:45:34;17.00;99.90
20690;DHT22;10504;48.762;8.996;2023-09-19T10:48:01;17.10;99.90
20690;DHT22;10504;48.762;8.996;2023-09-19T10:51:21;17.20;99.90
20690;DHT22;10504;48.762;8.996;2023-09-19T10:53:22;17.20;99.90
20690;DHT22;10504;48.762;8.996;2023-09-19T10:55:51;17.30;99.90
20690;DHT22;10504;48.762;8.996;2023-09-19T10:58:32;17.40;99.90
20690;DHT22;10504;48.762;8.996;2023-09-19T11:01:04;17.50;99.90
20690;DHT22;10504;48.762;8.996;2023-09-19T11:03:38;17.60;99.90
20690;DHT22;10504;48.762;8.996;2023-09-19T11:06:18;17.60;99.90
20690;DHT22;10504;48.762;8.996;2023-09-19T11:09:14;17.60;99.90
20690;DHT22;10504;48.762;8.996;2023-09-19T11:30:40;17.80;99.90
20690;DHT22;10504;48.762;8.996;2023-09-19T11:33:28;17.90;99.90
20690;DHT22;10504;48.762;8.996;2023-09-19T11:43:49;18.20;99.90
20690;DHT22;10504;48.762;8.996;2023-09-19T11:46:20;18.20;99.90
20690;DHT22;10504;48.762;8.996;2023-09-19T11:48:50;18.10;99.90
20690;DHT22;10504;48.762;8.996;2023-09-19T11:51:24;18.20;99.90
20690;DHT22;10504;48.762;8.996;2023-09-19T11:53:55;18.20;99.90
20690;DHT22;10504;48.762;8.996;2023-09-19T11:56:23;18.30;99.90
20690;DHT22;10504;48.762;8.996;2023-09-19T11:58:57;18.20;99.90
20690;DHT22;10504;48.762;8.996;2023-09-19T12:01:33;18.30;99.90
20690;DHT22;10504;48.762;8.996;2023-09-19T12:04:01;18.40;99.90
20690;DHT22;10504;48.762;8.996;2023-09-19T12:06:30;18.40;99.90
20690;DHT22;10504;48.762;8.996;2023-09-19T12:08:57;18.50;99.90
20690;DHT22;10504;48.762;8.996;2023-09-19T12:11:29;18.50;99.90
20690;DHT22;10504;48.762;8.996;2023-09-19T12:13:56;18.50;99.90
20690;DHT22;10504;48.762;8.996;2023-09-19T12:16:25;18.50;99.90
20690;DHT22;10504;48.762;8.996;2023-09-19T12:18:56;18.50;99.90
20690;DHT22;10504;48.762;8.996;2023-09-19T12:24:12;18.30;99.90
20690;DHT22;10504;48.762;8.996;2023-09-19T12:26:43;18.20;99.90
20690;DHT22;10504;48.762;8.996;2023-09-19T12:29:16;18.10;99.90
20690;DHT22;10504;48.762;8.996;2023-09-19T12:31:55;18.10;99.90
20690;DHT22;10504;48.762;8.996;2023-09-19T12:34:24;18.10;99.90
20690;DHT22;10504;48.762;8.996;2023-09-19T12:39:31;18.20;99.90
20690;DHT22;10504;48.762;8.996;2023-09-19T12:41:57;18.40;99.90
20690;DHT22;10504;48.762;8.996;2023-09-19T12:44:24;18.40;99.90
20690;DHT22;10504;48.762;8.996;2023-09-19T12:46:50;18.40;99.90
20690;DHT22;10504;48.762;8.996;2023-09-19T12:49:17;18.40;99.90
20690;DHT22;10504;48.762;8.996;2023-09-19T12:51:43;18.30;99.90
20690;DHT22;10504;48.762;8.996;2023-09-19T12:54:09;18.30;99.90
20690;DHT22;10504;48.762;8.996;2023-09-19T12:56:43;18.30;99.90
20690;DHT22;10504;48.762;8.996;2023-09-19T12:59:14;18.40;99.90
20690;DHT22;10504;48.762;8.996;2023-09-19T13:01:41;18.40;99.90
20690;DHT22;10504;48.762;8.996;2023-09-19T13:04:21;18.30;99.90
20690;DHT22;10504;48.762;8.996;2023-09-19T13:06:55;18.30;99.90
20690;DHT22;10504;48.762;8.996;2023-09-19T13:09:26;18.20;99.90
20690;DHT22;10504;48.762;8.996;2023-09-19T13:12:00;18.20;99.90
20690;DHT22;10504;48.762;8.996;2023-09-19T13:14:29;18.10;99.90
20690;DHT22;10504;48.762;8.996;2023-09-19T13:17:07;18.20;99.90
20690;DHT22;10504;48.762;8.996;2023-09-19T13:19:50;18.20;99.90
20690;DHT22;10504;48.762;8.996;2023-09-19T13:25:09;18.30;99.90
20690;DHT22;10504;48.762;8.996;2023-09-19T13:27:40;18.20;99.90
20690;DHT22;10504;48.762;8.996;2023-09-19T13:30:06;18.20;99.90
20690;DHT22;10504;48.762;8.996;2023-09-19T13:32:32;18.20;99.90
20690;DHT22;10504;48.762;8.996;2023-09-19T13:34:59;18.30;99.90
20690;DHT22;10504;48.762;8.996;2023-09-19T13:37:24;18.30;99.90
20690;DHT22;10504;48.762;8.996;2023-09-19T13:39:52;18.30;99.90
20690;DHT22;10504;48.762;8.996;2023-09-19T13:42:19;18.30;99.90
20690;DHT22;10504;48.762;8.996;2023-09-19T13:44:47;18.30;99.90
20690;DHT22;10504;48.762;8.996;2023-09-19T13:47:12;18.50;99.90
20690;DHT22;10504;48.762;8.996;2023-09-19T13:49:39;18.50;99.90
20690;DHT22;10504;48.762;8.996;2023-09-19T13:52:04;18.50;99.90
20690;DHT22;10504;48.762;8.996;2023-09-19T13:54:31;18.50;99.90
20690;DHT22;10504;48.762;8.996;2023-09-19T13:56:56;18.50;99.90
20690;DHT22;10504;48.762;8.996;2023-09-19T13:59:22;18.50;99.90
20690;DHT22;10504;48.762;8.996;2023-09-19T14:01:49;18.60;99.90
20690;DHT22;10504;48.762;8.996;2023-09-19T14:04:16;18.70;99.90
20690;DHT22;10504;48.762;8.996;2023-09-19T14:06:42;18.80;99.90
20690;DHT22;10504;48.762;8.996;2023-09-19T14:09:08;18.80;99.90
20690;DHT22;10504;48.762;8.996;2023-09-19T14:11:35;18.90;99.90
20690;DHT22;10504;48.762;8.996;2023-09-19T14:14:01;18.90;99.90
20690;DHT22;10504;48.762;8.996;2023-09-19T14:16:27;19.00;99.90
20690;DHT22;10504;48.762;8.996;2023-09-19T14:18:56;19.10;99.90
20690;DHT22;10504;48.762;8.996;2023-09-19T14:21:22;19.20;99.90
20690;DHT22;10504;48.762;8.996;2023-09-19T14:23:48;19.20;99.90
20690;DHT22;10504;48.762;8.996;2023-09-19T14:26:15;19.20;99.90
20690;DHT22;10504;48.762;8.996;2023-09-19T14:28:42;19.20;99.90
20690;DHT22;10504;48.762;8.996;2023-09-19T14:31:09;19.10;99.90
20690;DHT22;10504;48.762;8.996;2023-09-19T14:33:36;19.10;99.90
20690;DHT22;10504;48.762;8.996;2023-09-19T14:36:05;19.20;99.90
20690;DHT22;10504;48.762;8.996;2023-09-19T14:38:38;19.40;99.90
20690;DHT22;10504;48.762;8.996;2023-09-19T14:41:05;19.50;99.90
20690;DHT22;10504;48.762;8.996;2023-09-19T14:43:31;19.60;99.90
20690;DHT22;10504;48.762;8.996;2023-09-19T14:46:02;19.70;99.90
20690;DHT22;10504;48.762;8.996;2023-09-19T14:48:28;19.70;99.90
20690;DHT22;10504;48.762;8.996;2023-09-19T14:50:54;19.60;99.90
20690;DHT22;10504;48.762;8.996;2023-09-19T14:53:21;19.60;99.90
20690;DHT22;10504;48.762;8.996;2023-09-19T14:55:47;19.60;99.90
20690;DHT22;10504;48.762;8.996;2023-09-19T14:58:17;19.50;99.90
20690;DHT22;10504;48.762;8.996;2023-09-19T15:00:43;19.50;99.90
20690;DHT22;10504;48.762;8.996;2023-09-19T15:03:11;19.50;99.90
20690;DHT22;10504;48.762;8.996;2023-09-19T15:05:36;19.40;99.90
20690;DHT22;10504;48.762;8.996;2023-09-19T15:08:02;19.50;99.90
20690;DHT22;10504;48.762;8.996;2023-09-19T15:10:28;19.50;99.90
20690;DHT22;10504;48.762;8.996;2023-09-19T15:12:55;19.40;99.90
20690;DHT22;10504;48.762;8.996;2023-09-19T15:15:20;19.40;99.90
20690;DHT22;10504;48.762;8.996;2023-09-19T15:17:46;19.40;99.90
20690;DHT22;10504;48.762;8.996;2023-09-19T15:20:12;19.30;99.90
20690;DHT22;10504;48.762;8.996;2023-09-19T15:22:40;19.30;99.90
20690;DHT22;10504;48.762;8.996;2023-09-19T15:25:06;19.20;99.90
20690;DHT22;10504;48.762;8.996;2023-09-19T15:27:32;19.20;99.90
20690;DHT22;10504;48.762;8.996;2023-09-19T15:30:00;19.20;99.90
20690;DHT22;10504;48.762;8.996;2023-09-19T15:32:26;19.20;99.90
20690;DHT22;10504;48.762;8.996;2023-09-19T15:34:52;19.20;99.90
20690;DHT22;10504;48.762;8.996;2023-09-19T15:37:17;19.20;99.90
20690;DHT22;10504;48.762;8.996;2023-09-19T15:39:44;19.20;99.90
20690;DHT22;10504;48.762;8.996;2023-09-19T15:42:11;19.30;99.90
20690;DHT22;10504;48.762;8.996;2023-09-19T15:44:37;19.30;99.90
20690;DHT22;10504;48.762;8.996;2023-09-19T15:47:06;19.20;99.90
20690;DHT22;10504;48.762;8.996;2023-09-19T15:49:31;19.20;99.90
20690;DHT22;10504;48.762;8.996;2023-09-19T15:51:57;19.20;99.90
20690;DHT22;10504;48.762;8.996;2023-09-19T15:54:24;19.20;99.90
20690;DHT22;10504;48.762;8.996;2023-09-19T15:56:50;19.20;99.90
20690;DHT22;10504;48.762;8.996;2023-09-19T15:59:17;19.10;99.90
20690;DHT22;10504;48.762;8.996;2023-09-19T16:01:44;19.10;99.90
20690;DHT22;10504;48.762;8.996;2023-09-19T16:04:10;19.20;99.90
20690;DHT22;10504;48.762;8.996;2023-09-19T16:06:38;19.20;99.90
20690;DHT22;10504;48.762;8.996;2023-09-19T16:09:04;19.10;99.90
20690;DHT22;10504;48.762;8.996;2023-09-19T16:11:33;19.10;99.90
20690;DHT22;10504;48.762;8.996;2023-09-19T16:14:01;19.10;99.90
20690;DHT22;10504;48.762;8.996;2023-09-19T16:16:28;19.10;99.90
20690;DHT22;10504;48.762;8.996;2023-09-19T16:18:58;19.00;99.90
20690;DHT22;10504;48.762;8.996;2023-09-19T16:21:26;19.00;99.90
20690;DHT22;10504;48.762;8.996;2023-09-19T16:23:54;18.90;99.90
20690;DHT22;10504;48.762;8.996;2023-09-19T16:26:20;18.90;99.90
20690;DHT22;10504;48.762;8.996;2023-09-19T16:28:47;18.90;99.90